METAR Data
IDs: Format: Raw Decoded Include TAF

Data at: 1426 UTC 27 Nov 2021

KMDW 271353Z 18007KT 10SM BKN120 BKN170 OVC250 01/M07 A2988 RMK AO2 SLP131 T00061067 $